createdAt,value
2024-04-18T00:00:16.006Z,4.15
2024-04-18T00:02:42.957Z,2.45
2024-04-18T00:05:12.543Z,2.35
2024-04-18T00:07:39.439Z,2.85
2024-04-18T00:10:09.464Z,3.38
2024-04-18T00:12:36.334Z,2.55
2024-04-18T00:15:09.940Z,3.45
2024-04-18T00:17:36.910Z,4.72
2024-04-18T00:20:07.113Z,3.47
2024-04-18T00:22:33.976Z,4.57
2024-04-18T00:25:03.522Z,3.60
2024-04-18T00:27:30.478Z,3.95
2024-04-18T00:29:59.951Z,3.33
2024-04-18T00:32:29.443Z,5.22
2024-04-18T00:34:59.007Z,3.00
2024-04-18T00:37:25.903Z,3.95
2024-04-18T00:39:55.490Z,3.67
2024-04-18T00:42:22.326Z,3.60
2024-04-18T00:44:52.091Z,5.18
2024-04-18T00:47:18.964Z,4.15
2024-04-18T00:49:51.168Z,8.02
2024-04-18T00:52:20.407Z,3.97
2024-04-18T00:54:50.499Z,3.83
2024-04-18T00:57:18.840Z,5.40
2024-04-18T00:59:50.904Z,4.43
2024-04-18T01:02:18.207Z,4.10
2024-04-18T01:04:47.934Z,4.60
2024-04-18T01:07:17.594Z,5.32
2024-04-18T01:09:47.299Z,5.03
2024-04-18T01:12:14.299Z,3.90
2024-04-18T01:14:45.021Z,5.28
2024-04-18T01:17:12.151Z,5.43
2024-04-18T01:19:42.368Z,4.68
2024-04-18T01:22:09.724Z,7.18
2024-04-18T01:24:42.217Z,5.28
2024-04-18T01:27:11.748Z,5.35
2024-04-18T01:29:41.211Z,6.60
2024-04-18T01:32:08.082Z,6.88
2024-04-18T01:34:37.735Z,7.85
2024-04-18T01:37:05.052Z,5.70
2024-04-18T01:39:34.653Z,6.68
2024-04-18T01:42:01.507Z,8.43
2024-04-18T01:44:33.660Z,6.32
2024-04-18T01:47:00.524Z,6.85
2024-04-18T01:49:29.990Z,6.57
2024-04-18T01:51:56.799Z,5.75
2024-04-18T01:54:26.261Z,5.70
2024-04-18T01:56:53.144Z,5.60
2024-04-18T01:59:22.550Z,7.40
2024-04-18T02:01:52.254Z,5.82
2024-04-18T02:04:22.237Z,6.03
2024-04-18T02:06:50.457Z,6.63
2024-04-18T02:09:20.430Z,5.97
2024-04-18T02:11:48.282Z,4.47
2024-04-18T02:14:18.101Z,6.82
2024-04-18T02:16:44.950Z,4.95
2024-04-18T02:19:17.012Z,4.82
2024-04-18T02:21:44.003Z,4.60
2024-04-18T02:24:13.572Z,6.18
2024-04-18T02:26:41.103Z,8.63
2024-04-18T02:29:10.587Z,5.10
2024-04-18T02:31:37.459Z,4.00
2024-04-18T02:34:07.207Z,4.32
2024-04-18T02:36:39.068Z,6.05
2024-04-18T02:39:08.529Z,4.30
2024-04-18T02:41:35.386Z,4.95
2024-04-18T02:44:04.885Z,4.03
2024-04-18T02:46:31.871Z,5.18
2024-04-18T02:49:01.410Z,4.35
2024-04-18T02:51:28.288Z,4.55
2024-04-18T02:54:00.349Z,4.00
2024-04-18T02:56:27.181Z,4.10
2024-04-18T02:58:56.705Z,5.60
2024-04-18T03:01:23.560Z,7.07
2024-04-18T03:03:53.188Z,3.95
2024-04-18T03:06:20.116Z,6.97
2024-04-18T03:08:49.603Z,5.22
2024-04-18T03:11:19.430Z,5.60
2024-04-18T03:13:48.889Z,4.75
2024-04-18T03:16:15.772Z,4.88
2024-04-18T03:18:45.978Z,4.47
2024-04-18T03:21:13.101Z,5.97
2024-04-18T03:23:42.539Z,6.38
2024-04-18T03:26:09.415Z,4.75
2024-04-18T03:28:41.555Z,4.00
2024-04-18T03:31:08.421Z,5.32
2024-04-18T03:33:38.202Z,4.90
2024-04-18T03:36:05.815Z,4.45
2024-04-18T03:38:35.313Z,4.55
2024-04-18T03:41:04.802Z,4.20
2024-04-18T03:43:34.584Z,4.70
2024-04-18T03:46:06.811Z,4.97
2024-04-18T03:48:33.753Z,4.32
2024-04-18T03:51:03.305Z,5.35
2024-04-18T03:53:30.131Z,6.00
2024-04-18T03:55:59.574Z,5.43
2024-04-18T03:58:26.441Z,8.15
2024-04-18T04:00:56.086Z,5.82
2024-04-18T04:03:25.764Z,6.15
2024-04-18T04:05:55.593Z,5.38
2024-04-18T04:08:22.470Z,5.95
2024-04-18T04:10:52.044Z,6.55
2024-04-18T04:13:19.168Z,5.90
2024-04-18T04:15:51.349Z,7.20
2024-04-18T04:18:20.159Z,7.97
2024-04-18T04:20:52.319Z,7.82
2024-04-18T04:23:19.506Z,5.18
2024-04-18T04:25:49.305Z,5.82
2024-04-18T04:28:16.255Z,6.97
2024-04-18T04:30:45.740Z,8.13
2024-04-18T04:33:12.686Z,7.18
2024-04-18T04:35:42.225Z,6.63
2024-04-18T04:38:11.717Z,7.60
2024-04-18T04:40:41.532Z,5.95
2024-04-18T04:43:08.429Z,8.25
2024-04-18T04:45:38.188Z,6.65
2024-04-18T04:48:06.424Z,6.93
2024-04-18T04:50:38.452Z,8.63
2024-04-18T04:53:05.303Z,6.90
2024-04-18T04:55:37.389Z,6.05
2024-04-18T04:58:04.679Z,6.40
2024-04-18T05:00:34.265Z,7.40
2024-04-18T05:03:01.417Z,6.25
2024-04-18T05:05:31.011Z,6.75
2024-04-18T05:07:57.906Z,7.88
2024-04-18T05:10:29.874Z,6.78
2024-04-18T05:13:02.246Z,6.53
2024-04-18T05:15:32.079Z,6.43
2024-04-18T05:18:01.774Z,6.90
2024-04-18T05:20:28.705Z,7.55
2024-04-18T05:22:58.476Z,5.88
2024-04-18T05:25:25.364Z,6.30
2024-04-18T05:28:05.465Z,7.47
2024-04-18T05:30:53.601Z,8.13
2024-04-18T05:33:23.175Z,6.53
2024-04-18T05:35:53.544Z,6.40
2024-04-18T05:38:23.189Z,5.97
2024-04-18T05:40:52.996Z,6.95
2024-04-18T05:43:22.705Z,9.20
2024-04-18T05:45:54.969Z,7.82
2024-04-18T05:48:24.694Z,6.32
2024-04-18T05:50:51.628Z,5.80
2024-04-18T05:53:21.238Z,6.82
2024-04-18T05:55:50.945Z,6.85
2024-04-18T05:58:22.926Z,9.02
2024-04-18T06:00:55.121Z,5.60
2024-04-18T06:03:25.493Z,6.85
2024-04-18T06:05:57.671Z,5.80
2024-04-18T06:08:27.236Z,6.43
2024-04-18T06:10:56.711Z,7.32
2024-04-18T06:13:28.256Z,8.30
2024-04-18T06:16:01.638Z,6.70
2024-04-18T06:18:31.346Z,10.77
2024-04-18T06:21:00.902Z,7.82
2024-04-18T06:23:30.446Z,8.20
2024-04-18T06:25:59.883Z,7.05
2024-04-18T06:28:29.356Z,8.43
2024-04-18T06:30:59.029Z,8.48
2024-04-18T06:33:31.103Z,8.73
2024-04-18T06:36:01.590Z,8.52
2024-04-18T06:38:31.159Z,8.60
2024-04-18T06:41:00.781Z,7.32
2024-04-18T06:43:30.391Z,9.63
2024-04-18T06:46:03.467Z,7.45
2024-04-18T06:48:33.221Z,8.35
2024-04-18T06:51:02.780Z,8.65
2024-04-18T06:53:32.263Z,9.57
2024-04-18T06:56:04.417Z,7.68
2024-04-18T06:58:33.933Z,9.40
2024-04-18T07:01:06.633Z,8.45
2024-04-18T07:06:06.297Z,8.70
2024-04-18T07:08:36.213Z,9.40
2024-04-18T07:11:05.871Z,8.70
2024-04-18T07:13:36.350Z,9.18
2024-04-18T07:16:09.679Z,9.93
2024-04-18T07:18:39.417Z,10.52
2024-04-18T07:21:08.979Z,9.18
2024-04-18T07:23:38.518Z,10.75
2024-04-18T07:26:08.343Z,10.07
2024-04-18T07:28:37.825Z,10.73
2024-04-18T07:31:09.942Z,10.88
2024-04-18T07:33:39.626Z,10.88
2024-04-18T07:36:09.618Z,9.98
2024-04-18T07:38:39.216Z,9.82
2024-04-18T07:41:10.118Z,8.88
2024-04-18T07:43:39.595Z,8.27
2024-04-18T07:46:14.158Z,8.52
2024-04-18T07:48:44.036Z,9.30
2024-04-18T07:51:13.558Z,8.95
2024-04-18T07:53:43.088Z,8.38
2024-04-18T07:56:12.953Z,10.30
2024-04-18T07:58:42.911Z,9.05
2024-04-18T08:01:16.953Z,9.32
2024-04-18T08:03:56.680Z,10.95
2024-04-18T08:06:38.828Z,7.90
2024-04-18T08:09:13.281Z,8.73
2024-04-18T08:12:17.548Z,11.77
2024-04-18T08:14:38.168Z,8.90
2024-04-18T08:17:12.952Z,9.23
2024-04-18T08:19:42.593Z,12.90
2024-04-18T08:22:12.129Z,8.75
2024-04-18T08:24:41.976Z,9.55
2024-04-18T08:27:11.993Z,12.10
2024-04-18T08:29:41.597Z,9.68
2024-04-18T08:32:13.830Z,9.70
2024-04-18T08:34:45.056Z,7.68
2024-04-18T08:37:14.733Z,7.40
2024-04-18T08:39:44.345Z,7.60
2024-04-18T08:42:15.423Z,7.93
2024-04-18T08:44:45.398Z,8.88
2024-04-18T08:47:19.954Z,12.55
2024-04-18T08:49:50.150Z,21.02
2024-04-18T08:52:21.922Z,8.00
2024-04-18T08:54:51.417Z,13.38
2024-04-18T08:57:22.912Z,8.43
2024-04-18T08:59:58.340Z,7.80
2024-04-18T09:02:30.826Z,8.32
2024-04-18T09:05:02.040Z,7.82
2024-04-18T09:07:31.664Z,8.10
2024-04-18T09:10:11.355Z,8.52
2024-04-18T09:12:40.992Z,13.27
2024-04-18T09:15:11.495Z,7.70
2024-04-18T09:17:44.122Z,8.60
2024-04-18T09:20:14.115Z,11.10
2024-04-18T09:22:43.690Z,6.82
2024-04-18T09:25:13.599Z,8.80
2024-04-18T09:27:40.764Z,9.80
2024-04-18T09:30:11.662Z,9.63
2024-04-18T09:32:44.957Z,8.10
2024-04-18T09:35:15.472Z,8.63
2024-04-18T09:37:52.740Z,6.90
2024-04-18T09:40:30.092Z,5.32
2024-04-18T09:43:09.325Z,7.00
2024-04-18T09:45:51.520Z,7.47
2024-04-18T09:48:25.101Z,7.93
2024-04-18T09:50:55.829Z,8.52
2024-04-18T09:53:25.999Z,5.95
2024-04-18T09:55:56.908Z,7.95
2024-04-18T09:58:28.740Z,10.05
2024-04-18T10:00:57.186Z,8.97
2024-04-18T10:03:31.756Z,10.13
2024-04-18T10:06:05.278Z,6.53
2024-04-18T10:08:39.925Z,7.45
2024-04-18T10:11:11.253Z,9.73
2024-04-18T10:13:41.042Z,9.13
2024-04-18T10:16:12.476Z,9.57
2024-04-18T10:18:46.009Z,7.95
2024-04-18T10:21:18.754Z,8.15
2024-04-18T10:23:52.677Z,7.07
2024-04-18T10:26:23.514Z,8.07
2024-04-18T10:28:53.899Z,7.22
2024-04-18T10:31:23.425Z,7.47
2024-04-18T10:33:55.717Z,6.65
2024-04-18T10:36:28.298Z,7.82
2024-04-18T10:38:57.889Z,7.97
2024-04-18T10:41:28.691Z,10.60
2024-04-18T10:43:59.221Z,7.40
2024-04-18T10:46:30.345Z,7.28
2024-04-18T10:49:02.779Z,9.60
2024-04-18T10:51:34.432Z,8.45
2024-04-18T10:54:04.106Z,6.90
2024-04-18T10:56:34.121Z,7.50
2024-04-18T10:59:03.876Z,8.10
2024-04-18T11:01:40.030Z,8.00
2024-04-18T11:04:13.231Z,8.25
2024-04-18T11:06:43.268Z,8.40
2024-04-18T11:09:13.993Z,8.70
2024-04-18T11:11:43.718Z,7.50
2024-04-18T11:14:14.911Z,7.57
2024-04-18T11:16:44.739Z,7.25
2024-04-18T11:19:17.581Z,8.20
2024-04-18T11:21:47.166Z,7.70
2024-04-18T11:24:16.789Z,7.63
2024-04-18T11:26:43.719Z,5.80
2024-04-18T11:29:13.268Z,7.47
2024-04-18T11:31:42.984Z,6.72
2024-04-18T11:34:13.095Z,7.30
2024-04-18T11:36:45.259Z,6.53
2024-04-18T11:39:15.704Z,7.70
2024-04-18T11:41:45.277Z,6.70
2024-04-18T11:44:15.359Z,7.50
2024-04-18T11:46:45.094Z,6.43
2024-04-18T11:49:15.603Z,6.88
2024-04-18T11:51:47.814Z,6.07
2024-04-18T11:54:17.524Z,6.72
2024-04-18T11:56:47.162Z,7.90
2024-04-18T11:59:18.021Z,6.65
2024-04-18T12:01:47.700Z,6.15
2024-04-18T12:04:17.478Z,5.50
2024-04-18T12:06:49.812Z,5.72
2024-04-18T12:09:19.420Z,5.60
2024-04-18T12:11:49.029Z,5.85
2024-04-18T12:14:18.640Z,5.60
2024-04-18T12:16:48.247Z,4.57
2024-04-18T12:19:17.924Z,4.45
2024-04-18T12:21:50.207Z,4.82
2024-04-18T12:24:21.300Z,5.88
2024-04-18T12:26:48.290Z,4.80
2024-04-18T12:29:17.842Z,4.10
2024-04-18T12:31:47.555Z,4.82
2024-04-18T12:34:17.177Z,4.25
2024-04-18T12:36:46.960Z,6.82
2024-04-18T12:39:19.580Z,5.13
2024-04-18T12:41:49.174Z,8.32
2024-04-18T12:44:20.571Z,7.53
2024-04-18T12:46:50.267Z,6.97
2024-04-18T12:49:20.070Z,7.25
2024-04-18T12:51:49.784Z,7.53
2024-04-18T12:54:22.032Z,7.80
2024-04-18T12:56:50.319Z,6.88
2024-04-18T12:59:20.749Z,7.55
2024-04-18T13:01:50.329Z,6.88
2024-04-18T13:04:17.308Z,6.38
2024-04-18T13:06:46.948Z,5.95
2024-04-18T13:09:16.511Z,6.85
2024-04-18T13:11:48.683Z,4.75
2024-04-18T13:14:18.196Z,6.28
2024-04-18T13:16:50.383Z,6.57
2024-04-18T13:19:19.900Z,8.57
2024-04-18T13:21:49.456Z,6.45
2024-04-18T13:24:20.442Z,6.32
2024-04-18T13:26:53.024Z,4.78
2024-04-18T13:29:20.654Z,6.00
2024-04-18T13:31:50.299Z,5.28
2024-04-18T13:34:19.863Z,5.28
2024-04-18T13:36:49.766Z,4.80
2024-04-18T13:39:19.306Z,4.78
2024-04-18T13:41:48.988Z,6.60
2024-04-18T13:44:21.642Z,4.72
2024-04-18T13:49:20.828Z,4.13
2024-04-18T13:51:50.633Z,5.65
2024-04-18T13:54:21.101Z,4.72
2024-04-18T13:56:50.781Z,3.38
2024-04-18T13:59:22.991Z,4.50
2024-04-18T14:01:55.549Z,3.33
2024-04-18T14:04:25.352Z,3.00
2024-04-18T14:06:55.157Z,4.70
2024-04-18T14:09:27.917Z,4.45
2024-04-18T14:11:57.899Z,4.70
2024-04-18T14:14:30.522Z,4.10
2024-04-18T14:19:45.433Z,3.25
2024-04-18T14:22:15.287Z,4.05
2024-04-18T14:24:45.192Z,3.95
2024-04-18T14:27:14.787Z,5.10
2024-04-18T14:29:46.977Z,3.92
2024-04-18T14:32:16.648Z,5.15
2024-04-18T14:34:46.214Z,4.93
2024-04-18T14:37:15.720Z,4.15
2024-04-18T14:39:45.333Z,7.20
2024-04-18T14:42:15.027Z,7.13
2024-04-18T14:44:48.621Z,5.60
2024-04-18T14:47:18.603Z,4.18
2024-04-18T14:49:48.368Z,4.63
2024-04-18T14:52:17.882Z,8.60
2024-04-18T14:54:47.398Z,5.07
2024-04-18T14:57:16.970Z,4.38
2024-04-18T14:59:49.119Z,4.95
2024-04-18T15:02:18.682Z,5.18
2024-04-18T15:04:47.952Z,7.75
2024-04-18T15:07:17.691Z,6.05
2024-04-18T15:09:47.271Z,4.18
2024-04-18T15:12:18.266Z,5.18
2024-04-18T15:14:53.867Z,3.40
2024-04-18T15:17:23.448Z,4.35
2024-04-18T15:19:52.956Z,8.05
2024-04-18T15:22:22.588Z,3.17
2024-04-18T15:24:52.079Z,3.33
2024-04-18T15:27:21.606Z,2.53
2024-04-18T15:29:53.791Z,2.88
2024-04-18T15:32:24.627Z,3.30
2024-04-18T15:34:51.850Z,2.53
2024-04-18T15:37:21.411Z,2.30
2024-04-18T15:39:50.965Z,2.30
2024-04-18T15:42:20.706Z,2.20
2024-04-18T15:44:52.848Z,2.40
2024-04-18T15:47:22.529Z,2.30
2024-04-18T15:49:54.752Z,2.50
2024-04-18T15:52:24.278Z,2.45
2024-04-18T15:55:04.670Z,2.30
2024-04-18T15:57:42.562Z,3.00
2024-04-18T16:00:18.327Z,3.42
2024-04-18T16:02:51.519Z,3.20
2024-04-18T16:05:21.391Z,2.50
2024-04-18T16:07:51.192Z,4.43
2024-04-18T16:10:20.682Z,2.60
2024-04-18T16:12:50.239Z,6.38
2024-04-18T16:15:23.260Z,5.63
2024-04-18T16:17:52.926Z,3.80
2024-04-18T16:20:22.458Z,3.25
2024-04-18T16:22:51.969Z,3.97
2024-04-18T16:25:21.573Z,3.10
2024-04-18T16:27:51.281Z,8.13
2024-04-18T16:30:26.246Z,3.72
2024-04-18T16:32:55.850Z,3.75
2024-04-18T16:35:25.377Z,6.28
2024-04-18T16:37:55.331Z,6.40
2024-04-18T16:40:24.888Z,5.35
2024-04-18T16:43:03.791Z,4.20
2024-04-18T16:45:36.781Z,4.68
2024-04-18T16:48:07.006Z,4.85
2024-04-18T16:50:36.673Z,3.35
2024-04-18T16:53:06.364Z,4.38
2024-04-18T16:55:35.942Z,5.90
2024-04-18T16:58:02.832Z,3.05
2024-04-18T17:00:32.725Z,5.70
2024-04-18T17:03:05.660Z,4.15
2024-04-18T17:05:35.699Z,3.30
2024-04-18T17:08:05.239Z,3.35
2024-04-18T17:10:34.734Z,4.68
2024-04-18T17:13:04.249Z,9.93
2024-04-18T17:15:34.195Z,8.07
2024-04-18T17:18:06.923Z,6.47
2024-04-18T17:23:06.146Z,5.57
2024-04-18T17:25:35.666Z,3.80
2024-04-18T17:28:05.483Z,3.80
2024-04-18T17:30:35.083Z,5.72
2024-04-18T17:33:08.020Z,9.70
2024-04-18T17:35:37.787Z,13.63
2024-04-18T17:38:07.717Z,42.03
2024-04-18T17:40:37.279Z,37.55
2024-04-18T17:43:08.631Z,19.58
2024-04-18T17:45:38.341Z,14.85
2024-04-18T17:48:11.613Z,7.43
2024-04-18T17:50:42.379Z,6.35
2024-04-18T17:53:12.002Z,9.00
2024-04-18T17:55:41.590Z,14.57
2024-04-18T17:58:11.249Z,12.90
2024-04-18T18:00:41.167Z,4.57
2024-04-18T18:03:13.748Z,2.83
2024-04-18T18:05:43.594Z,3.58
2024-04-18T18:08:10.653Z,6.95
2024-04-18T18:10:40.437Z,8.10
2024-04-18T18:13:09.972Z,6.50
2024-04-18T18:15:39.565Z,5.80
2024-04-18T18:18:10.590Z,4.93
2024-04-18T18:20:43.707Z,6.65
2024-04-18T18:23:16.548Z,4.97
2024-04-18T18:28:13.491Z,4.03
2024-04-18T18:30:40.529Z,3.53
2024-04-18T18:33:10.524Z,4.50
2024-04-18T18:35:41.123Z,2.60
2024-04-18T18:38:11.450Z,3.17
2024-04-18T18:40:41.007Z,3.95
2024-04-18T18:43:08.159Z,7.95
2024-04-18T18:45:38.046Z,5.65
2024-04-18T18:48:07.434Z,4.05
2024-04-18T18:50:37.040Z,3.88
2024-04-18T18:53:06.890Z,5.55
2024-04-18T18:55:36.687Z,5.55
2024-04-18T18:58:04.704Z,3.63
2024-04-18T19:00:34.457Z,4.00
2024-04-18T19:03:05.016Z,3.85
2024-04-18T19:05:34.952Z,6.07
2024-04-18T19:08:01.976Z,8.48
2024-04-18T19:10:34.107Z,6.00
2024-04-18T19:13:01.040Z,5.53
2024-04-18T19:15:31.041Z,4.78
2024-04-18T19:17:58.060Z,4.13
2024-04-18T19:20:27.868Z,3.60
2024-04-18T19:22:55.014Z,5.22
2024-04-18T19:25:24.535Z,4.57
2024-04-18T19:27:54.182Z,6.72
2024-04-18T19:30:23.743Z,5.22
2024-04-18T19:32:51.996Z,5.35
2024-04-18T19:35:21.743Z,6.60
2024-04-18T19:37:48.640Z,23.15
2024-04-18T19:40:18.471Z,28.92
2024-04-18T19:42:45.508Z,27.08
2024-04-18T19:45:17.896Z,31.88
2024-04-18T19:47:45.837Z,60.22
2024-04-18T19:50:15.423Z,50.78
2024-04-18T19:52:43.018Z,41.30
2024-04-18T19:55:12.612Z,37.88
2024-04-18T19:57:39.668Z,18.08
2024-04-18T20:00:10.240Z,14.70
2024-04-18T20:02:39.940Z,13.07
2024-04-18T20:05:09.817Z,9.75
2024-04-18T20:07:37.464Z,7.05
2024-04-18T20:10:07.444Z,7.05
2024-04-18T20:12:34.496Z,7.57
2024-04-18T20:15:04.065Z,6.93
2024-04-18T20:17:30.998Z,11.68
2024-04-18T20:20:03.295Z,7.55
2024-04-18T20:22:30.227Z,7.47
2024-04-18T20:24:59.755Z,6.85
2024-04-18T20:27:26.776Z,9.07
2024-04-18T20:29:57.089Z,8.60
2024-04-18T20:32:24.872Z,8.25
2024-04-18T20:34:55.347Z,7.45
2024-04-18T20:37:25.571Z,10.35
2024-04-18T20:39:58.533Z,8.48
2024-04-18T20:42:26.967Z,7.72
2024-04-18T20:44:56.620Z,6.57
2024-04-18T20:47:23.617Z,7.90
2024-04-18T20:49:53.150Z,7.30
2024-04-18T20:52:20.144Z,5.03
2024-04-18T20:54:53.112Z,6.85
2024-04-18T20:57:20.027Z,4.30
2024-04-18T20:59:49.588Z,6.90
2024-04-18T21:02:16.703Z,4.68
2024-04-18T21:04:46.225Z,6.25
2024-04-18T21:07:13.072Z,8.43
2024-04-18T21:09:42.828Z,10.25
2024-04-18T21:12:15.060Z,6.10
2024-04-18T21:14:41.919Z,5.50
2024-04-18T21:17:11.614Z,5.38
2024-04-18T21:19:38.556Z,6.13
2024-04-18T21:22:08.180Z,3.80
2024-04-18T21:24:35.140Z,8.80
2024-04-18T21:27:04.744Z,5.47
2024-04-18T21:29:34.308Z,6.15
2024-04-18T21:32:03.902Z,8.05
2024-04-18T21:34:30.881Z,8.10
2024-04-18T21:37:00.420Z,7.68
2024-04-18T21:39:27.447Z,7.22
2024-04-18T21:41:57.002Z,6.50
2024-04-18T21:44:23.892Z,5.65
2024-04-18T21:46:56.015Z,3.60
2024-04-18T21:49:23.094Z,6.80
2024-04-18T21:51:52.728Z,11.73
2024-04-18T21:54:19.701Z,6.03
2024-04-18T21:56:49.234Z,4.63
2024-04-18T21:59:16.723Z,5.82
2024-04-18T22:01:46.211Z,5.18
2024-04-18T22:04:15.990Z,4.30
2024-04-18T22:06:46.966Z,7.63
2024-04-18T22:09:14.020Z,6.45
2024-04-18T22:11:44.108Z,16.23
2024-04-18T22:14:11.036Z,9.90
2024-04-18T22:16:40.583Z,8.13
2024-04-18T22:19:07.562Z,3.30
2024-04-18T22:21:40.300Z,7.03
2024-04-18T22:24:10.712Z,6.10
2024-04-18T22:26:37.975Z,4.22
2024-04-18T22:29:07.649Z,3.85
2024-04-18T22:31:34.662Z,5.50
2024-04-18T22:34:04.212Z,3.40
2024-04-18T22:36:31.182Z,4.35
2024-04-18T22:39:03.589Z,4.35
2024-04-18T22:41:30.470Z,3.65
2024-04-18T22:43:59.904Z,5.03
2024-04-18T22:46:26.810Z,5.22
2024-04-18T22:48:56.432Z,5.28
2024-04-18T22:51:23.444Z,7.55
2024-04-18T22:53:53.021Z,7.60
2024-04-18T22:56:25.808Z,9.75
2024-04-18T23:01:22.492Z,20.60
2024-04-18T23:03:52.092Z,7.07
2024-04-18T23:06:19.083Z,6.22
2024-04-18T23:08:48.548Z,4.15
2024-04-18T23:11:15.600Z,4.05
2024-04-18T23:13:48.617Z,3.72
2024-04-18T23:16:15.583Z,4.57
2024-04-18T23:18:45.559Z,6.30
2024-04-18T23:21:12.578Z,2.90
2024-04-18T23:23:42.110Z,4.82
2024-04-18T23:26:08.984Z,3.95
2024-04-18T23:28:38.451Z,3.60
2024-04-18T23:31:09.319Z,3.80
2024-04-18T23:33:38.855Z,5.13
2024-04-18T23:36:05.959Z,6.63
2024-04-18T23:38:35.705Z,5.47
2024-04-18T23:41:02.634Z,6.72
2024-04-18T23:43:32.069Z,4.97
2024-04-18T23:45:59.133Z,6.00
2024-04-18T23:48:32.405Z,2.83
2024-04-18T23:51:01.490Z,7.43
2024-04-18T23:53:31.183Z,4.03
2024-04-18T23:55:59.100Z,2.47
2024-04-18T23:58:28.569Z,4.47
